< < Back
Terminal Aerodrome Forecast


Current Version              Previous Versions:   1  2  3  4  5  6  7  8  9  

Terminal Aerodrome Forecast

313
FTUS42 KTAE 070525
TAFDHN
TAF
KDHN 070525Z 0706/0806 VRB03KT P6SM SKC
     FM071100 00000KT 5SM BR SKC
     FM071400 30005KT P6SM SCT050=

Latest METAR

344
SAUS70 KWBC 080400 RRA
MTRDHN
METAR KDHN 080353Z AUTO 22004KT 10SM CLR 26/23 A3020 RMK AO2 SLP218
T02610228


USA.gov is the U.S. government's official web portal to all federal, state and local government web resources and services.